Time;durP1;ratioP1;P1;durP2;ratioP2;P2;SDS_P1;SDS_P2;PMS_P1;PMS_P2;Temp;Humidity;BMP_temperature;BMP_pressure;BME280_temperature;BME280_humidity;BME280_pressure;Samples;Min_cycle;Max_cycle;Signal;HPM_P1;HPM_P2
2022/06/27 00:02:21;;;;;;;0.43;0.43;;;20.10;99.90;20.70;101310.00;;;;5094207;28;20631;-66
2022/06/27 00:04:51;;;;;;;0.40;0.40;;;20.10;99.90;20.60;101327.00;;;;5095891;28;20178;-66
2022/06/27 00:07:29;;;;;;;0.50;0.50;;;19.90;99.90;20.30;101358.00;;;;5094552;28;20178;-67
2022/06/27 00:10:02;;;;;;;0.60;0.60;;;19.70;99.90;20.60;101362.00;;;;5077847;28;20262;-67
2022/06/27 00:12:33;;;;;;;0.43;0.43;;;19.80;99.90;20.70;101359.00;;;;5094163;28;20665;-67
2022/06/27 00:15:10;;;;;;;0.50;0.50;;;19.90;99.90;20.50;101360.00;;;;5093976;28;20701;-67
2022/06/27 00:17:46;;;;;;;0.50;0.50;;;20.00;99.90;20.30;101357.00;;;;5094121;28;20189;-67
2022/06/27 00:20:16;;;;;;;0.40;0.40;;;19.80;99.90;20.30;101346.00;;;;5094414;28;20245;-67
2022/06/27 00:22:51;;;;;;;0.40;0.40;;;19.80;99.90;20.20;101351.00;;;;5093947;28;20169;-66
2022/06/27 00:25:26;;;;;;;0.50;0.50;;;19.70;99.90;20.20;101365.00;;;;5077459;28;20176;-67
2022/06/27 00:27:57;;;;;;;0.50;0.50;;;19.70;99.90;20.10;101318.00;;;;5094570;28;20165;-68
2022/06/27 00:30:31;;;;;;;0.43;0.43;;;19.60;99.90;20.30;101345.00;;;;5095659;28;20258;-66
2022/06/27 00:33:07;;;;;;;0.50;0.50;;;19.60;99.90;20.40;101348.00;;;;5094137;28;20631;-66
2022/06/27 00:35:40;;;;;;;0.50;0.50;;;19.60;99.90;20.20;101343.00;;;;5093900;28;20197;-67
2022/06/27 00:38:18;;;;;;;0.50;0.50;;;19.50;99.90;20.20;101319.00;;;;5093482;28;20186;-67
2022/06/27 00:41:09;;;;;;;0.50;0.50;;;19.40;99.90;20.00;101350.00;;;;5077269;28;20619;-67
2022/06/27 00:43:51;;;;;;;0.50;0.50;;;19.40;99.90;20.20;101352.00;;;;5077937;28;20655;-66
2022/06/27 00:46:33;;;;;;;0.47;0.47;;;19.30;99.90;19.90;101347.00;;;;5077449;28;20335;-67
2022/06/27 00:49:22;;;;;;;0.40;0.40;;;19.40;99.90;19.80;101347.00;;;;5093944;28;20226;-67
2022/06/27 00:51:55;;;;;;;0.40;0.40;;;19.20;99.90;20.10;101328.00;;;;5093575;28;20703;-66
2022/06/27 00:54:31;;;;;;;0.50;0.50;;;19.20;99.90;20.50;101344.00;;;;5094003;28;20603;-66
2022/06/27 00:57:05;;;;;;;0.50;0.50;;;19.50;99.90;20.10;101341.00;;;;5093705;28;20186;-65
2022/06/27 00:59:35;;;;;;;0.40;0.40;;;19.50;99.90;20.10;101347.00;;;;5076586;28;20636;-65
2022/06/27 01:02:06;;;;;;;0.47;0.47;;;19.50;99.90;20.40;101313.00;;;;5094720;28;20189;-65
2022/06/27 01:04:40;;;;;;;0.50;0.50;;;19.60;99.90;20.20;101350.00;;;;5093613;28;20181;-66
2022/06/27 01:07:22;;;;;;;0.60;0.60;;;19.60;99.90;20.30;101337.00;;;;5076394;28;20176;-67
2022/06/27 01:09:51;;;;;;;0.50;0.50;;;19.60;99.90;19.60;101342.00;;;;5094939;28;20579;-67
2022/06/27 01:12:23;;;;;;;0.40;0.40;;;19.30;99.90;19.50;101341.00;;;;5076575;28;20727;-66
2022/06/27 01:14:56;;;;;;;0.70;0.70;;;19.00;99.90;19.70;101337.00;;;;5092964;28;20215;-66
2022/06/27 01:17:46;;;;;;;0.57;0.57;;;18.90;99.90;19.80;101349.00;;;;5076196;28;20636;-66
2022/06/27 01:20:17;;;;;;;0.50;0.50;;;18.90;99.90;20.00;101336.00;;;;5093365;28;20181;-66
2022/06/27 01:22:49;;;;;;;2.43;2.30;;;19.20;99.90;19.70;101342.00;;;;5076068;28;20673;-66
2022/06/27 01:25:33;;;;;;;0.50;0.50;;;19.10;99.90;19.70;101334.00;;;;5092900;28;20309;-66
2022/06/27 01:28:05;;;;;;;0.40;0.40;;;19.10;99.90;19.50;101348.00;;;;5075823;28;20178;-66
2022/06/27 01:30:46;;;;;;;0.50;0.50;;;19.00;99.90;19.50;101337.00;;;;5093295;28;20168;-66
2022/06/27 01:33:16;;;;;;;0.40;0.40;;;19.00;99.90;19.40;101310.00;;;;5092959;28;20215;-65
2022/06/27 01:36:41;;;;;;;0.50;0.50;;;18.90;99.90;19.00;101302.00;;;;5092865;28;20176;-65
2022/06/27 01:38:47;;;;;;;0.40;0.40;;;18.60;99.90;18.60;101324.00;;;;5092862;28;20619;-66
2022/06/27 01:41:18;;;;;;;0.40;0.40;;;18.40;99.90;18.10;101339.00;;;;5092809;28;20186;-66
2022/06/27 01:43:56;;;;;;;0.40;0.40;;;18.10;99.90;18.10;101323.00;;;;5093826;28;20253;-66
2022/06/27 01:46:28;;;;;;;0.40;0.40;;;17.90;99.90;18.10;101331.00;;;;5092341;28;20181;-66
2022/06/27 01:49:06;;;;;;;0.40;0.40;;;17.80;99.90;18.30;101298.00;;;;5092746;28;20190;-67
2022/06/27 01:51:36;;;;;;;0.40;0.40;;;17.80;99.90;18.50;101312.00;;;;5075660;28;20203;-66
2022/06/27 01:54:13;;;;;;;0.40;0.40;;;18.10;99.90;18.50;101298.00;;;;5092590;28;20631;-65
2022/06/27 01:56:46;;;;;;;0.40;0.40;;;18.00;99.90;18.60;101321.00;;;;5092139;28;20166;-65
2022/06/27 01:59:30;;;;;;;0.40;0.40;;;18.00;99.90;18.80;101302.00;;;;5092505;28;20221;-66
2022/06/27 02:01:59;;;;;;;0.40;0.40;;;18.20;99.90;18.80;101290.00;;;;5075459;28;20645;-66
2022/06/27 02:04:29;;;;;;;0.40;0.40;;;18.20;99.90;18.60;101301.00;;;;5092510;28;20216;-66
2022/06/27 02:06:59;;;;;;;0.40;0.40;;;18.10;99.90;18.60;101305.00;;;;5092009;28;20238;-66
2022/06/27 02:09:36;;;;;;;0.50;0.50;;;18.00;99.90;18.80;101303.00;;;;5092521;28;20175;-66
2022/06/27 02:12:18;;;;;;;0.43;0.43;;;18.10;99.90;18.80;101299.00;;;;5074954;28;20669;-66
2022/06/27 02:14:51;;;;;;;0.50;0.50;;;18.10;99.90;18.60;101262.00;;;;5092675;28;20178;-66
2022/06/27 02:17:22;;;;;;;0.50;0.50;;;18.00;99.90;18.40;101308.00;;;;5092236;28;20186;-66
2022/06/27 02:19:49;;;;;;;0.50;0.50;;;18.00;99.90;18.60;101306.00;;;;5093391;28;20707;-65
2022/06/27 02:22:16;;;;;;;0.50;0.50;;;18.00;99.90;18.60;101311.00;;;;5075323;28;20186;-66
2022/06/27 02:24:49;;;;;;;0.50;0.50;;;18.00;99.90;18.20;101318.00;;;;5075179;28;20197;-65
2022/06/27 02:27:26;;;;;;;0.60;0.60;;;17.80;99.90;17.80;101330.00;;;;5092032;28;20274;-66
2022/06/27 02:30:06;;;;;;;0.50;0.50;;;17.60;99.90;17.30;101332.00;;;;5075671;28;20186;-66
2022/06/27 02:32:43;;;;;;;0.40;0.40;;;17.20;99.90;17.40;101328.00;;;;5092097;28;20275;-66
2022/06/27 02:35:23;;;;;;;0.50;0.50;;;17.10;99.90;17.90;101325.00;;;;5093520;28;20190;-66
2022/06/27 02:38:36;;;;;;;0.50;0.50;;;17.10;99.90;18.10;101317.00;;;;5075297;28;20248;-67
2022/06/27 02:41:20;;;;;;;0.50;0.50;;;17.30;99.90;18.10;101319.00;;;;5075395;28;20187;-66
2022/06/27 02:44:01;;;;;;;0.50;0.50;;;17.30;99.90;17.90;101323.00;;;;5075477;28;20184;-67
2022/06/27 02:46:40;;;;;;;0.50;0.50;;;17.40;99.90;17.60;101324.00;;;;5075215;28;20180;-67
2022/06/27 02:49:12;;;;;;;0.40;0.40;;;17.30;99.90;17.60;101332.00;;;;5092753;28;20240;-67
2022/06/27 02:51:57;;;;;;;0.50;0.50;;;17.20;99.90;17.60;101331.00;;;;5091659;28;20206;-67
2022/06/27 02:54:32;;;;;;;0.40;0.40;;;17.10;99.90;18.00;101323.00;;;;5091920;28;20629;-67
2022/06/27 02:57:44;;;;;;;0.60;0.60;;;17.30;99.90;18.40;101310.00;;;;5091599;28;20197;-67
2022/06/27 03:00:16;;;;;;;0.50;0.50;;;17.50;99.90;18.40;101300.00;;;;5067756;28;20194;-67
2022/06/27 03:02:43;;;;;;;0.50;0.50;;;17.60;99.90;18.60;101310.00;;;;5074642;28;20190;-66
2022/06/27 03:05:18;;;;;;;0.50;0.50;;;17.90;99.90;18.60;101301.00;;;;5091371;28;20649;-67
2022/06/27 03:07:52;;;;;;;0.60;0.60;;;18.00;99.90;18.70;101312.00;;;;5092730;28;20262;-67
2022/06/27 03:10:28;;;;;;;0.60;0.60;;;18.00;99.90;18.50;101285.00;;;;5091570;28;20159;-68
2022/06/27 03:13:01;;;;;;;0.70;0.70;;;18.00;99.90;18.70;101301.00;;;;5074914;28;20289;-67
2022/06/27 03:15:38;;;;;;;0.60;0.60;;;18.00;99.90;18.70;101297.00;;;;5091845;28;20176;-68
2022/06/27 03:18:07;;;;;;;0.60;0.60;;;18.10;99.90;18.60;101261.00;;;;5075544;28;20188;-67
2022/06/27 03:20:37;;;;;;;0.60;0.60;;;18.00;99.90;18.40;101306.00;;;;5078765;28;20182;-67
2022/06/27 03:23:15;;;;;;;0.60;0.60;;;18.00;99.90;18.40;101301.00;;;;5095379;28;20179;-66
2022/06/27 03:25:44;;;;;;;0.60;0.60;;;17.80;99.90;18.20;101293.00;;;;5079104;28;20536;-66
2022/06/27 03:28:21;;;;;;;0.50;0.50;;;17.80;99.90;17.80;101288.00;;;;5095334;28;20260;-66
2022/06/27 03:31:12;;;;;;;0.60;0.60;;;17.50;99.90;17.80;101304.00;;;;5078699;28;20266;-66
2022/06/27 03:33:38;;;;;;;0.70;0.70;;;17.40;99.90;17.60;101306.00;;;;5093211;28;20193;-67
2022/06/27 03:36:13;;;;;;;0.70;0.70;;;17.20;99.90;17.70;101318.00;;;;5115381;28;20216;-66
2022/06/27 03:38:47;;;;;;;0.50;0.50;;;17.10;99.90;17.30;101323.00;;;;5099197;28;20632;-66
2022/06/27 03:41:23;;;;;;;0.50;0.50;;;17.00;99.90;17.20;101300.00;;;;5098744;28;20194;-67
2022/06/27 03:44:03;;;;;;;0.60;0.60;;;16.90;99.90;18.10;101329.00;;;;5098627;28;20614;-66
2022/06/27 03:46:34;;;;;;;0.60;0.60;;;17.30;99.90;18.00;101298.00;;;;5096723;28;20194;-66
2022/06/27 03:51:52;;;;;;;0.50;0.50;;;17.40;99.90;18.30;101286.00;;;;5094724;28;20257;-66
2022/06/27 03:54:21;;;;;;;0.50;0.50;;;17.60;99.90;18.00;101305.00;;;;5094861;28;20713;-67
2022/06/27 03:56:50;;;;;;;0.60;0.60;;;17.50;99.90;18.10;101289.00;;;;5096259;28;20170;-66
2022/06/27 03:59:24;;;;;;;0.50;0.50;;;17.40;99.90;18.40;101277.00;;;;5078459;28;20184;-67
2022/06/27 04:01:56;;;;;;;0.50;0.50;;;17.60;99.90;18.30;101273.00;;;;5078098;28;20187;-66
2022/06/27 04:04:25;;;;;;;0.40;0.40;;;17.60;99.90;18.60;101265.00;;;;5096239;28;20182;-67
2022/06/27 04:06:58;;;;;;;0.50;0.50;;;17.80;99.90;18.70;101252.00;;;;5095171;28;20184;-66
2022/06/27 04:09:27;;;;;;;0.50;0.50;;;17.90;99.90;18.80;101257.00;;;;5095888;28;20198;-67
2022/06/27 04:11:57;;;;;;;0.40;0.40;;;18.00;99.90;18.80;101249.00;;;;5094312;28;20226;-67
2022/06/27 04:14:26;;;;;;;0.50;0.50;;;18.10;99.90;18.90;101231.00;;;;5094976;28;20222;-67
2022/06/27 04:16:58;;;;;;;0.40;0.40;;;18.20;99.90;18.80;101238.00;;;;5097604;28;20246;-67
2022/06/27 04:19:29;;;;;;;0.50;0.50;;;18.20;99.90;18.50;101242.00;;;;5114988;28;20174;-67
2022/06/27 04:22:00;;;;;;;0.50;0.50;;;18.10;99.90;18.30;101239.00;;;;5114340;28;20174;-67
2022/06/27 04:24:29;;;;;;;0.40;0.40;;;17.80;99.90;18.10;101219.00;;;;5114607;28;20156;-67
2022/06/27 04:27:04;;;;;;;0.40;0.40;;;17.70;99.90;17.80;101257.00;;;;5114695;28;20674;-67
2022/06/27 04:30:04;;;;;;;0.50;0.50;;;17.50;99.90;17.60;101253.00;;;;5097468;28;20177;-67
2022/06/27 04:32:36;;;;;;;0.50;0.50;;;17.30;99.90;17.60;101248.00;;;;5114631;28;20226;-67
2022/06/27 04:35:26;;;;;;;0.50;0.50;;;17.20;99.90;18.10;101245.00;;;;5097532;28;20217;-68
2022/06/27 04:37:53;;;;;;;0.50;0.50;;;17.40;99.90;18.40;101246.00;;;;5115734;28;20186;-68
2022/06/27 04:40:33;;;;;;;0.57;0.57;;;17.60;99.90;18.40;101217.00;;;;5097298;28;20183;-68
2022/06/27 04:43:04;;;;;;;0.50;0.50;;;17.70;99.90;18.10;101220.00;;;;5114553;28;20221;-68
2022/06/27 04:45:33;;;;;;;0.40;0.40;;;17.60;99.90;17.60;101236.00;;;;5115216;28;20177;-68
2022/06/27 04:48:07;;;;;;;0.50;0.50;;;17.30;99.90;17.20;101257.00;;;;5114280;28;20192;-67
2022/06/27 04:50:36;;;;;;;0.50;0.50;;;17.10;99.90;17.50;101270.00;;;;5113908;28;20172;-68
2022/06/27 04:53:05;;;;;;;0.40;0.40;;;17.10;99.90;18.60;101276.00;;;;5114330;28;20188;-68
2022/06/27 04:55:37;;;;;;;0.40;0.40;;;17.60;99.90;17.70;101279.00;;;;5096517;28;20223;-68
2022/06/27 04:58:09;;;;;;;0.40;0.40;;;17.60;99.90;18.60;101255.00;;;;5115374;28;20217;-67
2022/06/27 05:00:55;;;;;;;0.50;0.50;;;17.80;99.90;18.80;101237.00;;;;5097047;28;20268;-68
2022/06/27 05:03:23;;;;;;;0.40;0.40;;;18.10;99.90;18.90;101259.00;;;;5115144;28;20175;-68
2022/06/27 05:06:04;;;;;;;0.50;0.50;;;18.20;99.90;19.20;101282.00;;;;5113177;28;20276;-67
2022/06/27 05:08:37;;;;;;;1.57;1.57;;;18.30;99.90;19.50;101246.00;;;;5113919;28;20167;-67
2022/06/27 05:11:15;;;;;;;0.50;0.50;;;18.60;99.90;19.60;101264.00;;;;5114701;28;20183;-67
2022/06/27 05:13:44;;;;;;;0.50;0.50;;;18.80;99.90;19.70;101270.00;;;;5113787;28;20165;-68
2022/06/27 05:16:27;;;;;;;0.50;0.50;;;19.00;99.90;18.70;101255.00;;;;5096087;28;20657;-68
2022/06/27 05:19:03;;;;;;;0.40;0.40;;;18.60;99.90;18.50;101261.00;;;;5113183;28;20189;-68
2022/06/27 05:21:49;;;;;;;0.40;0.40;;;18.30;99.90;18.40;101271.00;;;;5096551;28;20622;-68
2022/06/27 05:24:36;;;;;;;0.30;0.30;;;18.20;99.90;18.50;101283.00;;;;5114908;28;20171;-68
2022/06/27 05:27:16;;;;;;;0.30;0.30;;;18.10;99.90;19.10;101275.00;;;;5113591;28;20166;-68
2022/06/27 05:29:52;;;;;;;0.40;0.40;;;18.30;99.90;19.30;101282.00;;;;5096452;28;20183;-68
2022/06/27 05:32:37;;;;;;;0.30;0.30;;;18.60;99.90;19.40;101254.00;;;;5113136;28;20732;-68
2022/06/27 05:35:39;;;;;;;0.40;0.40;;;18.70;99.90;19.90;101271.00;;;;5112671;28;20173;-69
2022/06/27 05:38:12;;;;;;;0.30;0.30;;;19.00;99.90;19.90;101256.00;;;;5113682;28;20164;-68
2022/06/27 05:40:45;;;;;;;0.43;0.43;;;19.20;99.90;18.60;101281.00;;;;5096014;28;20226;-68
2022/06/27 05:43:26;;;;;;;0.30;0.30;;;18.80;99.90;18.40;101287.00;;;;5113684;28;20162;-68
2022/06/27 05:46:01;;;;;;;0.30;0.30;;;18.40;99.90;18.30;101284.00;;;;5095959;28;20278;-68
2022/06/27 05:48:35;;;;;;;0.30;0.30;;;18.30;99.90;18.40;101297.00;;;;5113066;28;20537;-68
2022/06/27 05:51:23;;;;;;;0.30;0.30;;;18.20;99.90;18.40;101305.00;;;;5113775;28;20188;-68
2022/06/27 05:53:52;;;;;;;0.30;0.30;;;18.30;99.90;18.20;101315.00;;;;5112748;28;20181;-68
2022/06/27 05:56:18;;;;;;;0.30;0.30;;;18.20;99.90;18.00;101333.00;;;;5112614;28;20172;-68
2022/06/27 05:58:57;;;;;;;0.30;0.30;;;18.10;99.90;18.50;101349.00;;;;5096148;28;20189;-68
2022/06/27 06:01:25;;;;;;;0.40;0.40;;;18.20;99.90;18.90;101357.00;;;;5096123;28;20260;-68
2022/06/27 06:03:59;;;;;;;0.40;0.40;;;18.40;99.90;18.80;101327.00;;;;5112124;28;20178;-67
2022/06/27 06:06:36;;;;;;;0.40;0.40;;;18.50;99.90;18.30;101357.00;;;;5112907;28;20169;-68
2022/06/27 06:09:05;;;;;;;0.30;0.30;;;18.30;99.90;18.30;101367.00;;;;5096372;28;20185;-68
2022/06/27 06:11:48;;;;;;;0.40;0.40;;;18.30;99.90;18.50;101371.00;;;;5095627;28;20196;-68
2022/06/27 06:14:21;;;;;;;0.60;0.60;;;18.30;99.90;18.50;101338.00;;;;5096727;28;20177;-68
2022/06/27 06:16:52;;;;;;;0.40;0.40;;;18.30;99.90;18.60;101339.00;;;;5112481;28;20173;-68
2022/06/27 06:19:18;;;;;;;0.30;0.30;;;18.30;99.90;18.80;101346.00;;;;5113374;28;20261;-69
2022/06/27 06:22:03;;;;;;;0.30;0.30;;;18.50;99.90;19.30;101323.00;;;;5111256;28;20241;-68
2022/06/27 06:24:42;;;;;;;0.73;0.73;;;18.70;99.90;19.80;101309.00;;;;5085014;28;20186;-69
2022/06/27 06:27:44;;;;;;;0.30;0.30;;;19.00;99.90;19.40;101268.00;;;;5075939;28;20244;-67
2022/06/27 06:30:19;;;;;;;0.80;0.80;;;19.20;99.90;20.00;101280.00;;;;5076258;28;20201;-67
2022/06/27 06:32:47;;;;;;;0.30;0.30;;;19.30;99.90;20.40;101280.00;;;;5093141;28;20559;-68
2022/06/27 06:35:19;;;;;;;0.70;0.70;;;19.60;99.90;20.40;101267.00;;;;5092399;28;20193;-67
2022/06/27 06:37:51;;;;;;;0.40;0.40;;;19.70;99.90;20.60;101247.00;;;;5091906;28;20202;-68
2022/06/27 06:40:30;;;;;;;0.30;0.30;;;19.90;99.90;19.60;101221.00;;;;5092380;28;20206;-68
2022/06/27 06:43:21;;;;;;;0.30;0.30;;;19.60;99.90;18.50;101244.00;;;;5076268;28;20188;-67
2022/06/27 06:46:09;;;;;;;0.30;0.30;;;18.90;99.90;18.70;101262.00;;;;5075469;28;20186;-67
2022/06/27 06:48:47;;;;;;;0.30;0.30;;;18.60;99.90;18.80;101271.00;;;;5102581;28;20178;-66
2022/06/27 06:51:15;;;;;;;0.30;0.30;;;18.70;99.90;19.70;101266.00;;;;5102665;28;20228;-68
2022/06/27 06:53:45;;;;;;;0.30;0.30;;;19.10;99.90;20.80;101280.00;;;;5093823;28;20164;-68
2022/06/27 06:56:22;;;;;;;0.30;0.30;;;19.90;99.90;20.30;101253.00;;;;5103206;28;20198;-68
2022/06/27 06:58:50;;;;;;;0.20;0.20;;;19.80;99.90;19.70;101291.00;;;;5081655;28;20198;-68
2022/06/27 07:01:19;;;;;;;0.30;0.30;;;19.70;99.90;20.00;101256.00;;;;5098944;28;20176;-68
2022/06/27 07:04:03;;;;;;;0.30;0.30;;;19.60;99.90;19.90;101244.00;;;;5116328;28;20618;-67
2022/06/27 07:06:51;;;;;;;0.20;0.20;;;19.70;99.90;20.40;101294.00;;;;5117580;28;20214;-68
2022/06/27 07:09:37;;;;;;;0.20;0.20;;;19.90;99.90;19.60;101279.00;;;;5116371;28;20221;-68
2022/06/27 07:12:14;;;;;;;0.28;0.28;;;19.60;99.90;19.50;101314.00;;;;5083809;28;20333;-66
2022/06/27 07:14:48;;;;;;;0.30;0.30;;;19.50;99.90;20.20;101312.00;;;;5116083;28;20247;-66
2022/06/27 07:17:26;;;;;;;0.28;0.28;;;19.50;99.90;20.30;101311.00;;;;5115557;28;20618;-66
2022/06/27 07:20:11;;;;;;;0.20;0.20;;;19.80;99.90;19.60;101309.00;;;;5078744;28;20196;-68
2022/06/27 07:22:57;;;;;;;0.28;0.28;;;19.50;99.90;20.30;101296.00;;;;5095362;28;20717;-67
2022/06/27 07:25:46;;;;;;;0.30;0.30;;;19.60;99.90;21.00;101323.00;;;;5095163;28;20188;-67
2022/06/27 07:28:26;;;;;;;0.30;0.30;;;20.00;99.90;21.40;101330.00;;;;5095227;28;20213;-68
2022/06/27 07:31:12;;;;;;;0.30;0.30;;;20.40;99.90;21.80;101331.00;;;;5095459;28;20184;-68
2022/06/27 07:33:54;;;;;;;0.40;0.40;;;20.90;99.90;22.00;101331.00;;;;5095204;28;20188;-68
2022/06/27 07:36:56;;;;;;;0.30;0.30;;;21.10;99.90;20.70;101337.00;;;;5095160;28;20180;-67
2022/06/27 07:39:42;;;;;;;0.60;0.60;;;20.90;99.90;21.20;101345.00;;;;5096256;28;20173;-68
2022/06/27 07:42:08;;;;;;;0.30;0.30;;;20.70;99.90;21.40;101346.00;;;;5090739;28;20199;-67
2022/06/27 07:44:34;;;;;;;0.30;0.30;;;20.80;99.90;21.90;101322.00;;;;5111963;28;20172;-67
2022/06/27 07:47:10;;;;;;;0.30;0.30;;;21.00;99.90;20.70;101341.00;;;;5104114;28;20223;-68
2022/06/27 07:50:40;;;;;;;0.68;0.68;;;20.80;99.90;19.80;101319.00;;;;5094842;28;20185;-68
2022/06/27 07:53:17;;;;;;;0.20;0.20;;;20.10;99.90;20.10;101322.00;;;;5094906;28;20197;-67
2022/06/27 07:55:55;;;;;;;0.30;0.30;;;19.80;99.90;21.40;101318.00;;;;5095018;28;20203;-68
2022/06/27 07:58:38;;;;;;;0.30;0.30;;;20.40;99.90;21.20;101318.00;;;;5096227;28;20193;-68
2022/06/27 08:01:27;;;;;;;0.20;0.20;;;20.70;99.90;20.50;101296.00;;;;5077877;28;20176;-67
2022/06/27 08:04:14;;;;;;;0.20;0.20;;;20.50;99.90;21.30;101322.00;;;;5094062;28;20193;-68
2022/06/27 08:07:04;;;;;;;0.20;0.20;;;20.70;99.90;21.70;101337.00;;;;5078533;28;20208;-68
2022/06/27 08:09:42;;;;;;;0.20;0.20;;;20.90;99.90;21.50;101360.00;;;;5077966;28;20172;-67
2022/06/27 08:12:53;;;;;;;0.20;0.20;;;21.10;99.90;21.10;101374.00;;;;5094374;28;20199;-66
2022/06/27 08:15:20;;;;;;;0.70;0.70;;;20.80;99.90;21.10;101338.00;;;;5095321;28;20165;-69
2022/06/27 08:17:58;;;;;;;0.40;0.40;;;20.70;99.90;21.30;101384.00;;;;5094452;28;20176;-69
2022/06/27 08:20:26;;;;;;;0.30;0.30;;;20.70;99.90;21.30;101356.00;;;;5094221;28;20173;-69
2022/06/27 08:22:56;;;;;;;0.30;0.30;;;20.80;99.90;21.10;101373.00;;;;5077317;28;20200;-70
2022/06/27 08:25:35;;;;;;;0.25;0.25;;;20.70;99.90;21.20;101367.00;;;;5087412;28;20187;-70
2022/06/27 08:28:01;;;;;;;0.20;0.20;;;20.70;99.90;21.50;101379.00;;;;5106305;28;20184;-70
2022/06/27 08:30:30;;;;;;;0.20;0.20;;;20.80;99.90;20.90;101384.00;;;;5115708;28;20156;-70
2022/06/27 08:33:01;;;;;;;0.20;0.20;;;20.70;99.90;21.20;101394.00;;;;5095249;28;20213;-69
2022/06/27 08:35:33;;;;;;;0.20;0.20;;;20.70;99.90;21.50;101404.00;;;;5114575;28;20671;-69
2022/06/27 08:38:09;;;;;;;0.30;0.30;;;20.80;99.90;20.80;101386.00;;;;5097771;28;20279;-69
2022/06/27 08:40:37;;;;;;;0.20;0.20;;;20.70;99.90;20.60;101387.00;;;;5114740;28;20191;-69
2022/06/27 08:43:26;;;;;;;0.93;0.93;;;20.60;99.90;20.40;101392.00;;;;5097067;28;20787;-69
2022/06/27 08:45:54;;;;;;;0.20;0.20;;;20.50;99.90;20.80;101362.00;;;;5115148;28;20163;-64
2022/06/27 08:48:21;;;;;;;0.30;0.30;;;20.40;99.90;20.80;101390.00;;;;5110512;28;20184;-68
2022/06/27 08:51:05;;;;;;;0.30;0.30;;;20.40;99.90;20.50;101397.00;;;;5107625;28;20191;-65
2022/06/27 08:53:40;;;;;;;0.20;0.20;;;20.30;99.90;20.80;101385.00;;;;5111446;28;20266;-66
2022/06/27 08:56:12;;;;;;;0.30;0.30;;;20.40;99.90;20.20;101401.00;;;;5112838;28;20203;-65
2022/06/27 08:58:46;;;;;;;0.43;0.43;;;20.20;99.90;20.70;101394.00;;;;5113103;28;20241;-66
2022/06/27 09:01:30;;;;;;;0.30;0.30;;;20.20;99.90;21.00;101406.00;;;;5096394;28;20270;-64
2022/06/27 09:04:06;;;;;;;0.40;0.40;;;20.50;99.90;20.60;101400.00;;;;5112297;28;20267;-60
2022/06/27 09:06:47;;;;;;;0.30;0.30;;;20.30;99.90;20.30;101395.00;;;;5113261;28;20188;-68
2022/06/27 09:09:16;;;;;;;0.30;0.30;;;20.30;99.90;20.70;101393.00;;;;5117450;28;20188;-86
2022/06/27 09:11:49;;;;;;;0.40;0.40;;;20.20;99.90;20.60;101401.00;;;;5098234;28;20305;-79
2022/06/27 09:14:43;;;;;;;0.30;0.30;;;20.40;99.90;20.60;101405.00;;;;5097472;28;20184;-63
2022/06/27 09:17:17;;;;;;;0.30;0.30;;;20.40;99.90;20.30;101384.00;;;;5112982;28;20177;-64
2022/06/27 09:19:55;;;;;;;0.30;0.30;;;20.30;99.90;20.80;101365.00;;;;5113718;28;20186;-64
2022/06/27 09:22:32;;;;;;;0.30;0.30;;;20.30;99.90;20.60;101386.00;;;;5114119;28;20186;-73
2022/06/27 09:25:45;;;;;;;0.30;0.30;;;20.40;99.90;20.40;101355.00;;;;5110088;28;20204;-75
2022/06/27 09:28:19;;;;;;;0.30;0.30;;;20.10;99.90;20.30;101357.00;;;;5073170;28;20200;-73
2022/06/27 09:30:46;;;;;;;0.40;0.40;;;20.30;99.90;20.50;101342.00;;;;5092030;28;20211;-67
2022/06/27 09:33:17;;;;;;;0.30;0.30;;;20.20;99.90;20.30;101387.00;;;;5093278;28;20221;-66
2022/06/27 09:35:47;;;;;;;0.22;0.22;;;20.30;99.90;20.30;101392.00;;;;5091338;28;20658;-67
2022/06/27 09:38:25;;;;;;;0.30;0.30;;;20.20;99.90;20.60;101384.00;;;;5104325;28;20216;-66
2022/06/27 09:40:54;;;;;;;0.30;0.30;;;20.20;99.90;21.60;101395.00;;;;5112039;28;20176;-65
2022/06/27 09:43:25;;;;;;;0.30;0.30;;;20.70;99.90;22.10;101400.00;;;;5099902;28;20181;-63
2022/06/27 09:46:19;;;;;;;0.20;0.20;;;21.20;99.90;20.90;101369.00;;;;5091298;28;20291;-65
2022/06/27 09:48:46;;;;;;;0.30;0.30;;;20.90;99.90;21.90;101412.00;;;;5096802;28;20191;-70
2022/06/27 09:51:25;;;;;;;1.10;0.68;;;21.10;99.90;21.90;101408.00;;;;5090370;28;20263;-66
2022/06/27 09:53:51;;;;;;;0.40;0.40;;;21.30;99.90;21.60;101401.00;;;;5092726;28;20183;-67
2022/06/27 09:56:20;;;;;;;0.20;0.20;;;21.20;99.90;21.40;101419.00;;;;5091501;28;20181;-62
2022/06/27 09:58:46;;;;;;;0.20;0.20;;;21.20;99.90;21.60;101409.00;;;;5093542;28;20168;-62
2022/06/27 10:01:17;;;;;;;0.20;0.20;;;21.20;99.90;21.40;101405.00;;;;5091879;28;20212;-65
2022/06/27 10:03:52;;;;;;;0.30;0.30;;;21.10;99.90;21.90;101419.00;;;;5090367;28;20169;-66
2022/06/27 10:06:21;;;;;;;0.30;0.30;;;21.40;99.90;21.70;101413.00;;;;5091681;28;20214;-69
2022/06/27 10:09:08;;;;;;;0.40;0.40;;;21.30;99.90;20.60;101401.00;;;;5091689;28;20177;-69
2022/06/27 10:11:37;;;;;;;0.22;0.22;;;21.00;99.90;20.40;101351.00;;;;5091460;28;20292;-70
2022/06/27 10:14:37;;;;;;;0.20;0.20;;;20.60;99.90;20.40;101377.00;;;;5091881;28;20161;-68
2022/06/27 10:17:13;;;;;;;0.22;0.22;;;20.40;99.90;20.90;101396.00;;;;5092911;28;20184;-70
2022/06/27 10:20:32;;;;;;;1.15;1.15;;;20.50;99.90;20.80;101366.00;;;;5074461;28;20177;-73
2022/06/27 10:33:33;;;;;;;0.50;0.50;;;20.00;99.90;20.00;101426.00;;;;5024409;27;4005874;-65
2022/06/27 10:36:14;;;;;;;1.52;1.20;;;20.00;99.90;20.30;101429.00;;;;5109529;28;20210;-69
2022/06/27 10:38:40;;;;;;;0.30;0.30;;;20.30;99.90;20.30;101416.00;;;;5091842;28;20209;-70
2022/06/27 10:41:11;;;;;;;0.30;0.30;;;20.20;99.90;20.00;101407.00;;;;5106804;28;20184;-65
2022/06/27 10:43:37;;;;;;;0.30;0.30;;;20.10;99.90;19.50;101427.00;;;;5109968;28;20683;-68
2022/06/27 10:46:13;;;;;;;0.60;0.60;;;19.80;99.90;19.60;101406.00;;;;5108490;28;20180;-70
2022/06/27 10:48:52;;;;;;;0.63;0.63;;;19.70;99.90;20.00;101439.00;;;;5110239;28;20160;-69
2022/06/27 10:51:18;;;;;;;0.60;0.60;;;19.70;99.90;20.20;101450.00;;;;5108237;28;20195;-69
2022/06/27 10:54:08;;;;;;;0.50;0.50;;;19.90;99.90;20.30;101437.00;;;;5108254;28;20184;-70
2022/06/27 10:56:42;;;;;;;0.40;0.40;;;19.90;99.90;20.20;101436.00;;;;5096909;28;20624;-69
2022/06/27 10:59:14;;;;;;;0.30;0.30;;;20.00;99.90;19.90;101439.00;;;;5109488;28;20186;-71
2022/06/27 11:02:04;;;;;;;3.25;3.13;;;19.80;99.90;19.80;101439.00;;;;5108802;28;20183;-68
2022/06/27 11:04:57;;;;;;;0.30;0.30;;;19.70;99.90;20.50;101446.00;;;;5108153;28;20643;-72
2022/06/27 11:07:35;;;;;;;0.43;0.43;;;19.80;99.90;20.20;101439.00;;;;5108956;28;20546;-71
2022/06/27 11:10:04;;;;;;;1.33;1.05;;;20.00;99.90;19.70;101479.00;;;;5108221;28;20546;-71
2022/06/27 11:12:33;;;;;;;0.73;0.73;;;19.70;99.90;19.40;101473.00;;;;5107375;28;20207;-71
2022/06/27 11:15:06;;;;;;;0.55;0.55;;;19.40;99.90;19.50;101486.00;;;;5091325;28;20719;-72
2022/06/27 11:17:39;;;;;;;2.70;0.93;;;19.30;99.90;19.40;101474.00;;;;5117883;28;20178;-71
2022/06/27 11:20:35;;;;;;;1.23;1.23;;;19.20;99.90;19.00;101487.00;;;;5120226;27;20274;-71
2022/06/27 11:23:11;;;;;;;0.50;0.50;;;19.00;99.90;18.90;101498.00;;;;5091286;28;20259;-70
2022/06/27 11:25:56;;;;;;;1.47;1.37;;;18.70;99.90;18.60;101510.00;;;;5108032;28;20181;-70
2022/06/27 11:34:09;;;;;;;0.80;0.80;;;18.80;99.90;18.90;101557.00;;;;5109009;28;20221;-71
2022/06/27 11:36:43;;;;;;;0.60;0.60;;;18.60;99.90;19.00;101546.00;;;;5091533;28;20189;-71
2022/06/27 11:39:09;;;;;;;0.60;0.60;;;18.70;99.90;19.20;101594.00;;;;5088430;28;20182;-73
2022/06/27 11:41:53;;;;;;;8.40;3.00;;;18.70;99.90;18.00;101612.00;;;;5107205;28;20628;-73
2022/06/27 11:44:29;;;;;;;0.40;0.40;;;18.30;99.90;17.60;101621.00;;;;5094686;28;20280;-73
2022/06/27 11:47:43;;;;;;;1.20;1.10;;;17.70;99.90;17.60;101619.00;;;;5094493;28;20179;-73
2022/06/27 11:50:15;;;;;;;2.07;1.97;;;17.30;99.90;17.00;101613.00;;;;5103093;28;20684;-73